Terminal Aerodrome Forecast
Issued by NWS Wilmington, OH

Home | Current Version | Previous Version | Text Only | Print | Product List | Glossary On
Versions: 1 2 3 4 5 6 7 8 9 10 11 12 13 14 15
216
FTUS41 KILN 141137
TAFILN
TAF
KILN 141137Z 1412/1512 12008KT P6SM OVC150
     FM142000 12010KT 4SM -SN SCT015 OVC035
     FM142200 12010KT 1SM -SN BKN015 OVC035
      TEMPO 1422/1501 1SM -SN
     FM150500 15009KT 4SM -FZDZ OVC007=

USA.gov is the U.S. government's official web portal to all federal, state and local government web resources and services.